Wednesday, October 17, 2018, 12:07 PM EDT
Back to Local

KMWN, Mount Washington

Location: Bretton Woods, NH, United States Lat: 44.267
Local Time: 12:07 PM EDT (16:07 GMT) Lon: -71.3
Time Zone: US/Eastern Elev: 6263 ft

Show me the last for .
Show Coded

Time T Td Feel RH Dir Speed Gust Alt SLP Vis Weather Sky Remarks
2018-10-17 10:50 25 25 4 100 270° 45 52 - - 0 FZFG VV001 None
2018-10-17 09:52 23 23 2 100 270° 45 - - - 0 -SHSN FZFG BLSN VV001 None
2018-10-17 08:53 23 23 0 100 270° 55 59 - - 0 SHSN FZFG BLSN VV001 None
2018-10-17 07:56 23 23 2 100 270° 49 - - - 0 SHSN FZFG BLSN VV001 6-hr Precip Total (8am): 0.11"
24-hr Precip Total (8am): 0.11"
Snow depth: 1"
6-hr Min Temp (8am): 20.1°F
6-hr Max Temp (8am): 23.2°F
2018-10-17 06:54 23 23 2 100 280° 46 49 - - 0 -SHSN FZFG VV001 None
2018-10-17 05:47 23 23 2 100 270° 45 - - - 0 -SHSN FZFG VV000 None
2018-10-17 04:48 23 23 3 100 270° 39 - - - 0 FZFG VV000 None
2018-10-17 03:51 21 21 0 100 280° 41 - - - 0 FZFG VV000 None
2018-10-17 02:50 21 21 0 100 290° 43 - - - 0 FZFG VV000 None
2018-10-17 01:51 21 21 -1 100 290° 46 51 - - 0 FZFG VV000 6-hr Min Temp (2am): 19.2°F
6-hr Max Temp (2am): 21.4°F
2018-10-17 00:55 19 18 -2 92 290° 44 - - - 0 FZFG VV000 None
2018-10-16 23:47 21 21 0 100 280° 44 - - - 0 FZFG VV000 None
2018-10-16 22:50 21 21 -1 100 290° 48 - - - 0 FZFG VV000 None
2018-10-16 21:47 19 19 -4 100 290° 52 55 - - 0 FZFG VV000 None
2018-10-16 20:49 19 19 -4 100 280° 52 - - - 0 FZFG VV000 None
2018-10-16 19:50 19 19 -3 100 280° 47 - - - 0 FZFG VV000 6-hr Min Temp (8pm): 19.0°F
6-hr Max Temp (8pm): 21.0°F
2018-10-16 18:48 19 19 -3 100 280° 45 - - - 0 FZFG VV000 None
2018-10-16 17:50 19 19 -3 100 280° 49 - - - 0 FZFG VV002 None
2018-10-16 16:51 19 14 -5 79 280° 59 - - - 80 SCT004 SCT010 BKN100 None
2018-10-16 15:50 19 14 -6 79 280° 58 66 - - 80 OVC002 None
2018-10-16 14:47 19 19 -7 100 280° 62 76 - - 0 FZFG VV002 None
2018-10-16 13:47 19 19 -7 100 280° 64 75 - - 0 FZFG VV001 6-hr Min Temp (2pm): 16.0°F
6-hr Max Temp (2pm): 20.3°F
2018-10-16 12:52 19 19 -7 100 290° 67 71 - - 0 FZFG VV001 None

Support USWX by starting your Amazon purchase here.